Time;durP1;ratioP1;P1;durP2;ratioP2;P2;SDS_P1;SDS_P2;PMS_P1;PMS_P2;Temp;Humidity;BMP_temperature;BMP_pressure;BME280_temperature;BME280_humidity;BME280_pressure;Samples;Min_cycle;Max_cycle;Signal;HPM_P1;HPM_P2
2023/01/30 00:03:49;;;;;;;4.97;1.80;;;;;;;;;;20836305;28;20045;-58
2023/01/30 00:14:11;;;;;;;3.65;2.22;;;;;;;;;;20836391;28;20049;-59
2023/01/30 00:24:32;;;;;;;4.25;1.92;;;;;;;;;;20834770;28;20052;-59
2023/01/30 00:34:54;;;;;;;4.03;1.95;;;;;;;;;;20833890;28;20095;-59
2023/01/30 00:55:55;;;;;;;3.95;2.05;;;;;;;;;;20835827;28;20061;-60
2023/01/30 01:06:17;;;;;;;15.27;5.43;;;;;;;;;;20832817;28;20067;-60
2023/01/30 01:16:38;;;;;;;3.75;1.75;;;;;;;;;;20831032;28;20107;-60
2023/01/30 01:27:00;;;;;;;3.75;1.88;;;;;;;;;;20831870;28;20053;-60
2023/01/30 01:37:21;;;;;;;2.97;1.80;;;;;;;;;;20830887;28;20052;-60
2023/01/30 01:47:37;;;;;;;6.05;2.38;;;;;;;;;;20829869;28;20060;-60
2023/01/30 01:58:04;;;;;;;3.00;1.63;;;;;;;;;;20830723;28;20489;-58
2023/01/30 02:08:17;;;;;;;2.30;1.40;;;;;;;;;;20845939;28;20481;-58
2023/01/30 02:18:21;;;;;;;4.20;2.03;;;;;;;;;;20845658;28;20053;-58
2023/01/30 02:28:46;;;;;;;3.75;2.05;;;;;;;;;;20845172;28;20128;-58
2023/01/30 02:39:08;;;;;;;4.53;2.25;;;;;;;;;;20844082;28;20187;-58
2023/01/30 02:49:14;;;;;;;3.72;1.75;;;;;;;;;;20842455;28;20050;-58
2023/01/30 02:59:33;;;;;;;5.13;1.80;;;;;;;;;;20842886;28;20482;-58
2023/01/30 03:09:56;;;;;;;4.88;2.10;;;;;;;;;;20841829;28;20057;-59
2023/01/30 03:19:58;;;;;;;2.47;1.57;;;;;;;;;;20840915;28;20421;-58
2023/01/30 03:30:00;;;;;;;3.78;1.70;;;;;;;;;;20840210;28;20041;-57
2023/01/30 03:40:07;;;;;;;4.47;1.38;;;;;;;;;;20839518;28;20137;-59
2023/01/30 03:50:13;;;;;;;2.67;1.60;;;;;;;;;;20837508;28;20049;-58
2023/01/30 04:00:27;;;;;;;4.60;2.28;;;;;;;;;;20837620;28;20512;-58
2023/01/30 04:10:40;;;;;;;3.95;2.08;;;;;;;;;;20837059;28;20049;-59
2023/01/30 04:21:02;;;;;;;3.70;2.03;;;;;;;;;;20834855;28;20057;-58
2023/01/30 04:31:20;;;;;;;3.53;1.95;;;;;;;;;;20835142;28;20441;-59
2023/01/30 04:41:34;;;;;;;5.43;1.95;;;;;;;;;;20833986;28;20050;-59
2023/01/30 04:51:55;;;;;;;3.00;1.70;;;;;;;;;;20833030;28;20057;-58
2023/01/30 05:02:00;;;;;;;4.85;2.20;;;;;;;;;;20833232;28;20061;-60
2023/01/30 05:12:04;;;;;;;4.68;1.95;;;;;;;;;;20832459;28;20054;-59
2023/01/30 05:22:11;;;;;;;3.45;1.80;;;;;;;;;;20832426;28;20449;-58
2023/01/30 05:32:17;;;;;;;4.00;2.15;;;;;;;;;;20830624;28;20081;-58
2023/01/30 05:42:25;;;;;;;3.88;1.88;;;;;;;;;;20846441;28;20129;-59
2023/01/30 05:52:32;;;;;;;5.72;1.92;;;;;;;;;;20846043;28;20140;-59
2023/01/30 06:02:36;;;;;;;4.10;2.15;;;;;;;;;;20846586;28;20132;-61
2023/01/30 06:12:42;;;;;;;4.97;2.10;;;;;;;;;;20845919;28;20470;-61
2023/01/30 06:22:50;;;;;;;4.43;2.10;;;;;;;;;;20845435;28;20050;-61
2023/01/30 06:33:01;;;;;;;3.17;1.90;;;;;;;;;;20843248;28;20504;-60
2023/01/30 06:43:09;;;;;;;7.13;2.33;;;;;;;;;;20843405;28;20046;-59
2023/01/30 06:53:17;;;;;;;4.88;2.22;;;;;;;;;;20840876;28;20085;-60
2023/01/30 07:03:28;;;;;;;8.50;2.40;;;;;;;;;;20842240;28;20467;-59
2023/01/30 07:13:49;;;;;;;8.00;2.33;;;;;;;;;;20840673;28;20057;-57
2023/01/30 07:24:04;;;;;;;5.28;2.10;;;;;;;;;;20840358;28;20089;-59
2023/01/30 07:34:13;;;;;;;5.78;2.70;;;;;;;;;;20838969;28;20081;-59
2023/01/30 07:44:23;;;;;;;3.75;2.22;;;;;;;;;;20838585;28;20045;-59
2023/01/30 07:54:41;;;;;;;4.95;2.97;;;;;;;;;;20837733;28;20128;-59
2023/01/30 08:04:55;;;;;;;6.32;2.95;;;;;;;;;;20836445;28;20474;-58
2023/01/30 08:15:04;;;;;;;7.93;3.92;;;;;;;;;;20836268;28;20132;-59
2023/01/30 08:25:16;;;;;;;9.82;3.40;;;;;;;;;;20834564;28;20049;-58
2023/01/30 08:35:27;;;;;;;10.02;3.20;;;;;;;;;;20833474;28;20053;-58
2023/01/30 08:45:39;;;;;;;10.02;2.90;;;;;;;;;;20833470;28;20057;-58
2023/01/30 08:55:44;;;;;;;16.08;4.03;;;;;;;;;;20833761;28;20107;-60
2023/01/30 09:05:47;;;;;;;9.30;3.97;;;;;;;;;;20833528;28;20199;-60
2023/01/30 09:15:57;;;;;;;11.13;4.07;;;;;;;;;;20832203;28;20052;-58
2023/01/30 09:26:07;;;;;;;11.57;3.83;;;;;;;;;;20831905;28;20310;-58
2023/01/30 09:36:14;;;;;;;11.13;4.30;;;;;;;;;;20829757;28;20060;-57
2023/01/30 09:46:48;;;;;;;8.37;4.13;;;;;;;;;;20830384;28;20054;-58
2023/01/30 09:57:16;;;;;;;5.97;3.00;;;;;;;;;;20830902;28;20564;-57
2023/01/30 10:07:39;;;;;;;7.80;3.80;;;;;;;;;;20830716;28;20056;-59
2023/01/30 10:17:46;;;;;;;6.93;3.65;;;;;;;;;;20829038;28;20046;-58
2023/01/30 10:27:53;;;;;;;7.20;2.92;;;;;;;;;;20842590;28;20073;-57
2023/01/30 10:38:15;;;;;;;5.68;3.08;;;;;;;;;;20842903;28;20050;-59
2023/01/30 10:48:23;;;;;;;4.00;2.35;;;;;;;;;;20841656;28;20050;-57
2023/01/30 10:58:30;;;;;;;5.43;2.80;;;;;;;;;;20842488;28;20057;-60
2023/01/30 11:08:35;;;;;;;5.35;2.22;;;;;;;;;;20842208;28;20053;-58
2023/01/30 11:18:47;;;;;;;5.40;2.55;;;;;;;;;;20841517;28;20057;-58
2023/01/30 11:28:50;;;;;;;3.60;2.45;;;;;;;;;;20840564;28;20056;-59
2023/01/30 11:38:57;;;;;;;5.45;2.50;;;;;;;;;;20838554;28;20140;-58
2023/01/30 11:49:05;;;;;;;6.05;2.60;;;;;;;;;;20836570;28;20111;-58
2023/01/30 11:59:20;;;;;;;7.00;3.20;;;;;;;;;;20840044;28;20375;-58
2023/01/30 12:09:29;;;;;;;7.28;3.22;;;;;;;;;;20837029;28;20478;-58
2023/01/30 12:19:49;;;;;;;7.65;3.65;;;;;;;;;;20835045;28;20052;-59
2023/01/30 12:29:55;;;;;;;4.45;2.67;;;;;;;;;;20835465;28;20412;-59
2023/01/30 12:40:00;;;;;;;6.85;3.28;;;;;;;;;;20834592;28;20057;-59
2023/01/30 12:50:38;;;;;;;5.63;3.00;;;;;;;;;;20831503;28;20103;-59
2023/01/30 13:00:59;;;;;;;7.85;2.92;;;;;;;;;;20824281;28;20049;-58
2023/01/30 13:11:01;;;;;;;9.40;4.28;;;;;;;;;;20823858;28;20513;-59
2023/01/30 13:21:25;;;;;;;4.90;2.42;;;;;;;;;;20822827;28;20093;-60
2023/01/30 13:31:29;;;;;;;3.25;2.22;;;;;;;;;;20826965;28;20049;-60
2023/01/30 13:41:35;;;;;;;3.00;1.88;;;;;;;;;;20829416;28;20057;-60
2023/01/30 13:51:46;;;;;;;6.25;2.70;;;;;;;;;;20829041;28;20046;-59
2023/01/30 14:02:05;;;;;;;4.13;2.50;;;;;;;;;;20840793;28;20049;-59
2023/01/30 14:12:06;;;;;;;4.78;2.40;;;;;;;;;;20844765;28;20104;-59
2023/01/30 14:22:17;;;;;;;4.28;2.22;;;;;;;;;;20845807;28;20060;-59
2023/01/30 14:32:19;;;;;;;6.32;3.15;;;;;;;;;;20843823;28;20057;-59
2023/01/30 14:42:21;;;;;;;7.97;4.20;;;;;;;;;;20844182;28;20398;-61
2023/01/30 14:52:42;;;;;;;5.95;2.92;;;;;;;;;;20841518;28;20139;-58
2023/01/30 15:02:50;;;;;;;4.60;2.65;;;;;;;;;;20842647;28;20054;-58
2023/01/30 15:13:12;;;;;;;5.78;2.47;;;;;;;;;;20841349;28;20054;-57
2023/01/30 15:23:34;;;;;;;4.80;2.88;;;;;;;;;;20838325;28;20053;-59
2023/01/30 15:33:43;;;;;;;5.68;2.97;;;;;;;;;;20840137;28;20482;-59
2023/01/30 15:44:00;;;;;;;10.60;4.50;;;;;;;;;;20838063;28;20088;-58
2023/01/30 15:54:03;;;;;;;9.13;3.47;;;;;;;;;;20835470;28;20057;-59
2023/01/30 16:04:06;;;;;;;6.38;3.13;;;;;;;;;;20836371;28;20096;-60
2023/01/30 16:14:12;;;;;;;5.90;3.20;;;;;;;;;;20836835;28;20440;-60
2023/01/30 16:24:21;;;;;;;4.15;2.42;;;;;;;;;;20835358;28;20049;-58
2023/01/30 16:34:22;;;;;;;5.88;3.13;;;;;;;;;;20835004;28;20111;-59
2023/01/30 16:44:25;;;;;;;12.43;5.88;;;;;;;;;;20833231;28;20049;-59
2023/01/30 16:54:29;;;;;;;5.57;2.70;;;;;;;;;;20833071;28;20053;-58
2023/01/30 17:04:31;;;;;;;4.95;2.60;;;;;;;;;;20832796;28;20041;-58
2023/01/30 17:14:33;;;;;;;6.78;3.30;;;;;;;;;;20831559;28;20097;-60
2023/01/30 17:24:35;;;;;;;6.05;3.22;;;;;;;;;;20830871;28;20137;-56
2023/01/30 17:34:39;;;;;;;6.32;2.78;;;;;;;;;;20831190;28;20493;-58
2023/01/30 17:44:42;;;;;;;12.80;6.53;;;;;;;;;;20830523;28;20053;-59
2023/01/30 17:54:43;;;;;;;6.38;3.15;;;;;;;;;;20830452;28;20049;-60
2023/01/30 18:04:45;;;;;;;7.53;3.60;;;;;;;;;;20828894;28;20053;-58
2023/01/30 18:14:47;;;;;;;8.15;3.70;;;;;;;;;;20828484;28;20053;-57
2023/01/30 18:24:48;;;;;;;6.63;3.83;;;;;;;;;;20830212;28;20133;-59
2023/01/30 18:34:50;;;;;;;8.82;4.43;;;;;;;;;;20829391;28;20046;-57
2023/01/30 18:44:52;;;;;;;8.05;3.83;;;;;;;;;;20833592;28;20084;-56
2023/01/30 18:54:53;;;;;;;11.35;4.82;;;;;;;;;;20842601;28;20466;-56
2023/01/30 19:04:55;;;;;;;12.15;4.65;;;;;;;;;;20841755;28;20049;-57
2023/01/30 19:14:57;;;;;;;15.60;7.63;;;;;;;;;;20841033;28;20046;-58
2023/01/30 19:24:58;;;;;;;12.93;6.70;;;;;;;;;;20840449;28;20073;-58
2023/01/30 19:35:00;;;;;;;15.15;5.70;;;;;;;;;;20840205;28;20478;-59
2023/01/30 19:45:02;;;;;;;13.20;6.07;;;;;;;;;;20838292;28;20056;-59
2023/01/30 19:55:04;;;;;;;8.45;4.68;;;;;;;;;;20837438;28;20490;-58
2023/01/30 20:05:06;;;;;;;11.52;5.38;;;;;;;;;;20836423;28;20141;-59
2023/01/30 20:15:09;;;;;;;10.30;5.72;;;;;;;;;;20835404;28;20053;-59
2023/01/30 20:25:10;;;;;;;36.25;18.38;;;;;;;;;;20836417;28;20124;-60
2023/01/30 20:35:12;;;;;;;13.98;6.38;;;;;;;;;;20835139;28;20063;-59
2023/01/30 20:45:14;;;;;;;14.80;6.63;;;;;;;;;;20834661;28;20441;-59
2023/01/30 20:55:15;;;;;;;12.73;5.68;;;;;;;;;;20832010;28;20049;-58
2023/01/30 21:05:19;;;;;;;10.73;5.78;;;;;;;;;;20831166;28;20049;-61
2023/01/30 21:15:21;;;;;;;8.98;3.78;;;;;;;;;;20832440;28;20478;-60
2023/01/30 21:25:23;;;;;;;11.85;4.95;;;;;;;;;;20834409;28;20497;-59
2023/01/30 21:35:24;;;;;;;8.30;3.13;;;;;;;;;;20830598;28;20077;-60
2023/01/30 21:45:26;;;;;;;6.43;3.83;;;;;;;;;;20831110;28;20143;-59
2023/01/30 21:55:28;;;;;;;6.80;3.53;;;;;;;;;;20830844;28;20466;-60
2023/01/30 22:05:34;;;;;;;5.18;3.10;;;;;;;;;;20830693;28;20409;-57
2023/01/30 22:15:36;;;;;;;6.50;3.20;;;;;;;;;;20829001;28;20085;-58
2023/01/30 22:25:38;;;;;;;7.90;3.17;;;;;;;;;;20845894;28;20046;-59
2023/01/30 22:35:39;;;;;;;7.65;3.17;;;;;;;;;;20844965;28;20060;-58
2023/01/30 22:45:41;;;;;;;7.22;2.78;;;;;;;;;;20843575;28;20050;-57
2023/01/30 22:55:43;;;;;;;9.13;3.70;;;;;;;;;;20842121;28;20478;-59
2023/01/30 23:05:44;;;;;;;5.50;3.13;;;;;;;;;;20842966;28;20049;-59
2023/01/30 23:15:47;;;;;;;6.22;3.35;;;;;;;;;;20841063;28;20057;-57
2023/01/30 23:25:49;;;;;;;7.63;3.63;;;;;;;;;;20842621;28;20041;-58
2023/01/30 23:35:53;;;;;;;7.82;3.90;;;;;;;;;;20840775;28;20053;-58
2023/01/30 23:45:56;;;;;;;8.27;3.83;;;;;;;;;;20840045;28;20098;-58
2023/01/30 23:55:58;;;;;;;9.10;3.53;;;;;;;;;;20842545;28;20102;-58
